sensor_id;sensor_type;location;lat;lon;timestamp;pressure;altitude;pressure_sealevel;temperature;humidity
64388;BME280;50709;52.648;4.764;2022-11-28T00:01:21;100957.84;;;16.77;60.52
64388;BME280;50709;52.648;4.764;2022-11-28T00:03:47;100949.31;;;16.64;58.99
64388;BME280;50709;52.648;4.764;2022-11-28T00:06:12;100951.41;;;16.50;60.07
64388;BME280;50709;52.648;4.764;2022-11-28T00:08:37;100947.28;;;16.36;60.05
64388;BME280;50709;52.648;4.764;2022-11-28T00:11:07;100942.94;;;16.34;60.51
64388;BME280;50709;52.648;4.764;2022-11-28T00:13:32;100936.06;;;16.25;60.44
64388;BME280;50709;52.648;4.764;2022-11-28T00:15:58;100939.41;;;16.35;61.47
64388;BME280;50709;52.648;4.764;2022-11-28T00:18:24;100935.03;;;16.34;60.40
64388;BME280;50709;52.648;4.764;2022-11-28T00:20:49;100940.41;;;16.27;60.45
64388;BME280;50709;52.648;4.764;2022-11-28T00:23:14;100937.16;;;16.14;60.85
64388;BME280;50709;52.648;4.764;2022-11-28T00:25:40;100922.97;;;16.22;61.17
64388;BME280;50709;52.648;4.764;2022-11-28T00:28:05;100921.13;;;16.25;61.29
64388;BME280;50709;52.648;4.764;2022-11-28T00:30:30;100920.34;;;16.20;61.17
64388;BME280;50709;52.648;4.764;2022-11-28T00:32:55;100921.34;;;16.14;62.08
64388;BME280;50709;52.648;4.764;2022-11-28T00:35:21;100922.06;;;16.23;62.48
64388;BME280;50709;52.648;4.764;2022-11-28T00:37:46;100926.44;;;16.24;60.88
64388;BME280;50709;52.648;4.764;2022-11-28T00:40:11;100921.91;;;16.30;62.21
64388;BME280;50709;52.648;4.764;2022-11-28T00:42:36;100915.72;;;16.31;62.00
64388;BME280;50709;52.648;4.764;2022-11-28T00:45:02;100904.47;;;16.23;60.81
64388;BME280;50709;52.648;4.764;2022-11-28T00:47:27;100896.78;;;16.12;61.93
64388;BME280;50709;52.648;4.764;2022-11-28T00:49:52;100902.75;;;16.21;62.81
64388;BME280;50709;52.648;4.764;2022-11-28T00:52:17;100893.91;;;16.25;62.56
64388;BME280;50709;52.648;4.764;2022-11-28T00:54:42;100887.66;;;16.30;62.98
64388;BME280;50709;52.648;4.764;2022-11-28T00:57:08;100879.69;;;16.34;61.95
64388;BME280;50709;52.648;4.764;2022-11-28T00:59:33;100883.25;;;16.31;62.09
64388;BME280;50709;52.648;4.764;2022-11-28T01:01:58;100878.13;;;16.23;62.95
64388;BME280;50709;52.648;4.764;2022-11-28T01:04:23;100885.09;;;16.26;62.39
64388;BME280;50709;52.648;4.764;2022-11-28T01:06:49;100881.59;;;16.25;62.67
64388;BME280;50709;52.648;4.764;2022-11-28T01:09:15;100882.38;;;16.29;62.74
64388;BME280;50709;52.648;4.764;2022-11-28T01:11:41;100874.72;;;16.20;62.80
64388;BME280;50709;52.648;4.764;2022-11-28T01:14:07;100874.78;;;16.15;62.65
64388;BME280;50709;52.648;4.764;2022-11-28T01:16:33;100873.84;;;16.18;62.07
64388;BME280;50709;52.648;4.764;2022-11-28T01:18:58;100866.88;;;16.15;62.42
64388;BME280;50709;52.648;4.764;2022-11-28T01:21:23;100870.56;;;16.08;61.76
64388;BME280;50709;52.648;4.764;2022-11-28T01:23:49;100862.00;;;15.95;62.73
64388;BME280;50709;52.648;4.764;2022-11-28T01:26:15;100857.66;;;15.92;62.13
64388;BME280;50709;52.648;4.764;2022-11-28T01:28:41;100856.75;;;15.95;62.63
64388;BME280;50709;52.648;4.764;2022-11-28T01:31:07;100854.16;;;15.93;62.80
64388;BME280;50709;52.648;4.764;2022-11-28T01:33:33;100849.88;;;15.88;62.56
64388;BME280;50709;52.648;4.764;2022-11-28T01:35:59;100854.22;;;15.90;63.37
64388;BME280;50709;52.648;4.764;2022-11-28T01:38:24;100859.41;;;15.93;62.50
64388;BME280;50709;52.648;4.764;2022-11-28T01:40:50;100865.50;;;15.97;63.08
64388;BME280;50709;52.648;4.764;2022-11-28T01:43:16;100860.16;;;16.00;63.28
64388;BME280;50709;52.648;4.764;2022-11-28T01:45:42;100851.47;;;15.95;62.25
64388;BME280;50709;52.648;4.764;2022-11-28T01:48:08;100839.22;;;15.92;63.28
64388;BME280;50709;52.648;4.764;2022-11-28T01:50:34;100853.28;;;15.93;63.95
64388;BME280;50709;52.648;4.764;2022-11-28T01:53:01;100852.41;;;15.92;63.75
64388;BME280;50709;52.648;4.764;2022-11-28T01:55:30;100854.09;;;15.95;63.15
64388;BME280;50709;52.648;4.764;2022-11-28T01:57:56;100858.41;;;15.99;64.37
64388;BME280;50709;52.648;4.764;2022-11-28T02:00:22;100854.16;;;15.93;62.02
64388;BME280;50709;52.648;4.764;2022-11-28T02:02:48;100853.28;;;15.93;62.99
64388;BME280;50709;52.648;4.764;2022-11-28T02:05:15;100855.97;;;15.91;64.36
64388;BME280;50709;52.648;4.764;2022-11-28T02:07:40;100849.94;;;15.85;64.10
64388;BME280;50709;52.648;4.764;2022-11-28T02:10:07;100849.00;;;15.87;63.98
64388;BME280;50709;52.648;4.764;2022-11-28T02:12:52;100840.13;;;15.93;64.35
64388;BME280;50709;52.648;4.764;2022-11-28T02:15:27;100835.59;;;16.00;64.36
64388;BME280;50709;52.648;4.764;2022-11-28T02:23:10;100827.88;;;15.90;64.06
64388;BME280;50709;52.648;4.764;2022-11-28T02:25:42;100817.41;;;15.87;64.05
64388;BME280;50709;52.648;4.764;2022-11-28T02:30:51;100810.56;;;15.77;63.37
64388;BME280;50709;52.648;4.764;2022-11-28T02:38:20;100810.75;;;15.66;63.74
64388;BME280;50709;52.648;4.764;2022-11-28T02:43:14;100809.38;;;15.48;64.31
64388;BME280;50709;52.648;4.764;2022-11-28T02:48:10;100814.66;;;15.45;63.91
64388;BME280;50709;52.648;4.764;2022-11-28T02:50:43;100812.75;;;15.53;64.87
64388;BME280;50709;52.648;4.764;2022-11-28T02:53:10;100818.72;;;15.63;64.46
64388;BME280;50709;52.648;4.764;2022-11-28T02:55:38;100808.38;;;15.54;63.53
64388;BME280;50709;52.648;4.764;2022-11-28T02:58:04;100813.66;;;15.52;63.95
64388;BME280;50709;52.648;4.764;2022-11-28T03:00:31;100804.09;;;15.48;65.02
64388;BME280;50709;52.648;4.764;2022-11-28T03:13:46;100802.19;;;15.55;65.10
64388;BME280;50709;52.648;4.764;2022-11-28T03:18:38;100789.03;;;15.55;64.93
64388;BME280;50709;52.648;4.764;2022-11-28T03:21:10;100793.34;;;15.60;64.39
64388;BME280;50709;52.648;4.764;2022-11-28T03:23:42;100795.94;;;15.62;64.86
64388;BME280;50709;52.648;4.764;2022-11-28T03:28:56;100797.72;;;15.60;64.73
64388;BME280;50709;52.648;4.764;2022-11-28T03:31:32;100795.00;;;15.64;65.06
64388;BME280;50709;52.648;4.764;2022-11-28T03:34:00;100783.56;;;15.67;64.56
64388;BME280;50709;52.648;4.764;2022-11-28T03:36:37;100787.88;;;15.68;64.59
64388;BME280;50709;52.648;4.764;2022-11-28T03:39:06;100783.72;;;15.58;64.38
64388;BME280;50709;52.648;4.764;2022-11-28T03:41:34;100785.47;;;15.57;65.10
64388;BME280;50709;52.648;4.764;2022-11-28T03:44:00;100790.78;;;15.56;64.83
64388;BME280;50709;52.648;4.764;2022-11-28T03:46:32;100795.25;;;15.52;65.56
64388;BME280;50709;52.648;4.764;2022-11-28T03:48:59;100789.06;;;15.53;65.45
64388;BME280;50709;52.648;4.764;2022-11-28T03:51:32;100789.03;;;15.56;65.21
64388;BME280;50709;52.648;4.764;2022-11-28T03:54:01;100781.13;;;15.55;65.57
64388;BME280;50709;52.648;4.764;2022-11-28T03:56:35;100789.84;;;15.58;65.32
64388;BME280;50709;52.648;4.764;2022-11-28T03:59:06;100775.81;;;15.58;66.13
64388;BME280;50709;52.648;4.764;2022-11-28T04:01:35;100783.75;;;15.55;65.13
64388;BME280;50709;52.648;4.764;2022-11-28T04:04:12;100770.66;;;15.52;64.57
64388;BME280;50709;52.648;4.764;2022-11-28T04:07:40;100771.53;;;15.54;65.80
64388;BME280;50709;52.648;4.764;2022-11-28T04:09:49;100781.09;;;15.58;65.80
64388;BME280;50709;52.648;4.764;2022-11-28T04:12:22;100785.47;;;15.57;64.95
64388;BME280;50709;52.648;4.764;2022-11-28T04:14:53;100790.72;;;15.59;64.80
64388;BME280;50709;52.648;4.764;2022-11-28T04:17:31;100781.97;;;15.57;64.40
64388;BME280;50709;52.648;4.764;2022-11-28T04:19:58;100784.66;;;15.55;65.20
64388;BME280;50709;52.648;4.764;2022-11-28T04:22:32;100783.13;;;15.43;65.44
64388;BME280;50709;52.648;4.764;2022-11-28T04:25:00;100785.75;;;15.43;66.15
64388;BME280;50709;52.648;4.764;2022-11-28T04:27:29;100783.09;;;15.45;66.20
64388;BME280;50709;52.648;4.764;2022-11-28T04:29:56;100785.72;;;15.45;65.66
64388;BME280;50709;52.648;4.764;2022-11-28T04:32:23;100793.69;;;15.42;65.92
64388;BME280;50709;52.648;4.764;2022-11-28T04:34:52;100794.44;;;15.48;64.66
64388;BME280;50709;52.648;4.764;2022-11-28T04:37:19;100796.28;;;15.43;65.45
64388;BME280;50709;52.648;4.764;2022-11-28T04:39:45;100794.47;;;15.47;65.36
64388;BME280;50709;52.648;4.764;2022-11-28T04:42:13;100800.63;;;15.46;65.83
64388;BME280;50709;52.648;4.764;2022-11-28T04:44:54;100765.03;;;15.25;65.44
64388;BME280;50709;52.648;4.764;2022-11-28T04:47:21;100811.03;;;15.51;65.65
64388;BME280;50709;52.648;4.764;2022-11-28T04:49:47;100817.13;;;15.54;65.19
64388;BME280;50709;52.648;4.764;2022-11-28T04:52:18;100805.59;;;15.60;65.50
64388;BME280;50709;52.648;4.764;2022-11-28T04:59:56;100806.03;;;15.37;65.53
64388;BME280;50709;52.648;4.764;2022-11-28T05:02:22;100806.00;;;15.38;65.17
64388;BME280;50709;52.648;4.764;2022-11-28T05:04:48;100805.16;;;15.38;65.93
64388;BME280;50709;52.648;4.764;2022-11-28T05:07:16;100805.97;;;15.41;65.89
64388;BME280;50709;52.648;4.764;2022-11-28T05:09:41;100808.56;;;15.43;66.32
64388;BME280;50709;52.648;4.764;2022-11-28T05:12:07;100812.00;;;15.48;66.59
64388;BME280;50709;52.648;4.764;2022-11-28T05:14:32;100811.97;;;15.50;66.29
64388;BME280;50709;52.648;4.764;2022-11-28T05:16:57;100809.34;;;15.50;66.17
64388;BME280;50709;52.648;4.764;2022-11-28T05:19:22;100812.00;;;15.48;66.18
64388;BME280;50709;52.648;4.764;2022-11-28T05:21:48;100808.53;;;15.44;66.43
64388;BME280;50709;52.648;4.764;2022-11-28T05:24:13;100805.00;;;15.47;66.76
64388;BME280;50709;52.648;4.764;2022-11-28T05:26:38;100813.66;;;15.52;66.18
64388;BME280;50709;52.648;4.764;2022-11-28T05:29:04;100813.66;;;15.51;65.29
64388;BME280;50709;52.648;4.764;2022-11-28T05:31:30;100816.31;;;15.51;65.91
64388;BME280;50709;52.648;4.764;2022-11-28T05:33:55;100824.28;;;15.47;66.32
64388;BME280;50709;52.648;4.764;2022-11-28T05:36:21;100824.19;;;15.51;66.24
64388;BME280;50709;52.648;4.764;2022-11-28T05:38:46;100819.84;;;15.50;66.38
64388;BME280;50709;52.648;4.764;2022-11-28T05:41:22;100825.09;;;15.51;66.37
64388;BME280;50709;52.648;4.764;2022-11-28T05:43:47;100832.91;;;15.54;66.11
64388;BME280;50709;52.648;4.764;2022-11-28T05:46:12;100832.09;;;15.52;66.73
64388;BME280;50709;52.648;4.764;2022-11-28T05:48:38;100832.09;;;15.52;66.17
64388;BME280;50709;52.648;4.764;2022-11-28T05:51:03;100837.31;;;15.54;65.72
64388;BME280;50709;52.648;4.764;2022-11-28T05:53:29;100845.22;;;15.54;65.35
64388;BME280;50709;52.648;4.764;2022-11-28T05:55:54;100844.44;;;15.48;66.49
64388;BME280;50709;52.648;4.764;2022-11-28T05:58:19;100843.53;;;15.50;66.33
64388;BME280;50709;52.648;4.764;2022-11-28T06:00:45;100845.22;;;15.54;66.14
64388;BME280;50709;52.648;4.764;2022-11-28T06:03:10;100849.56;;;15.56;66.40
64388;BME280;50709;52.648;4.764;2022-11-28T06:05:37;100846.91;;;15.58;66.30
64388;BME280;50709;52.648;4.764;2022-11-28T06:08:02;100853.91;;;15.59;66.55
64388;BME280;50709;52.648;4.764;2022-11-28T06:10:27;100856.34;;;15.68;66.69
64388;BME280;50709;52.648;4.764;2022-11-28T06:12:53;100861.22;;;15.90;66.39
64388;BME280;50709;52.648;4.764;2022-11-28T06:15:18;100870.28;;;16.20;65.73
64388;BME280;50709;52.648;4.764;2022-11-28T06:17:43;100868.69;;;16.54;64.97
64388;BME280;50709;52.648;4.764;2022-11-28T06:20:08;100874.00;;;16.93;64.05
64388;BME280;50709;52.648;4.764;2022-11-28T06:22:34;100871.69;;;17.15;62.78
64388;BME280;50709;52.648;4.764;2022-11-28T06:24:59;100859.50;;;17.45;62.03
64388;BME280;50709;52.648;4.764;2022-11-28T06:27:24;100864.94;;;17.72;61.13
64388;BME280;50709;52.648;4.764;2022-11-28T06:29:49;100857.75;;;17.77;60.74
64388;BME280;50709;52.648;4.764;2022-11-28T06:32:15;100857.78;;;18.09;60.22
64388;BME280;50709;52.648;4.764;2022-11-28T06:34:40;100862.75;;;18.49;58.43
64388;BME280;50709;52.648;4.764;2022-11-28T06:37:05;100858.63;;;18.69;59.17
64388;BME280;50709;52.648;4.764;2022-11-28T06:39:30;100860.59;;;18.62;59.18
64388;BME280;50709;52.648;4.764;2022-11-28T06:41:56;100858.53;;;18.72;59.97
64388;BME280;50709;52.648;4.764;2022-11-28T06:44:22;100857.59;;;18.75;59.51
64388;BME280;50709;52.648;4.764;2022-11-28T06:46:50;100837.44;;;18.97;59.83
64388;BME280;50709;52.648;4.764;2022-11-28T06:49:15;100862.91;;;19.02;59.42
64388;BME280;50709;52.648;4.764;2022-11-28T06:51:41;100861.13;;;19.29;59.08
64388;BME280;50709;52.648;4.764;2022-11-28T06:54:06;100849.69;;;19.54;58.77
64388;BME280;50709;52.648;4.764;2022-11-28T06:56:32;100844.56;;;19.49;58.43
64388;BME280;50709;52.648;4.764;2022-11-28T06:58:58;100855.84;;;19.29;59.01
64388;BME280;50709;52.648;4.764;2022-11-28T07:01:24;100866.84;;;19.16;59.03
64388;BME280;50709;52.648;4.764;2022-11-28T07:03:50;100867.66;;;19.19;59.00
64388;BME280;50709;52.648;4.764;2022-11-28T07:06:16;100869.81;;;19.07;59.12
64388;BME280;50709;52.648;4.764;2022-11-28T07:08:42;100876.81;;;19.08;59.68
64388;BME280;50709;52.648;4.764;2022-11-28T07:11:10;100878.84;;;19.00;59.26
64388;BME280;50709;52.648;4.764;2022-11-28T07:13:36;100881.03;;;18.86;58.35
64388;BME280;50709;52.648;4.764;2022-11-28T07:16:01;100881.22;;;18.79;59.83
64388;BME280;50709;52.648;4.764;2022-11-28T07:18:27;100879.97;;;18.63;59.79
64388;BME280;50709;52.648;4.764;2022-11-28T07:20:52;100889.97;;;18.53;59.36
64388;BME280;50709;52.648;4.764;2022-11-28T07:23:17;100893.03;;;18.39;60.37
64388;BME280;50709;52.648;4.764;2022-11-28T07:25:43;100894.94;;;18.34;60.06
64388;BME280;50709;52.648;4.764;2022-11-28T07:28:08;100898.09;;;18.17;60.63
64388;BME280;50709;52.648;4.764;2022-11-28T07:30:33;100898.38;;;18.06;59.85
64388;BME280;50709;52.648;4.764;2022-11-28T07:32:58;100899.28;;;18.05;61.07
64388;BME280;50709;52.648;4.764;2022-11-28T07:35:24;100896.78;;;18.01;60.83
64388;BME280;50709;52.648;4.764;2022-11-28T07:37:49;100910.00;;;18.01;60.87
64388;BME280;50709;52.648;4.764;2022-11-28T07:40:14;100910.09;;;17.96;61.30
64388;BME280;50709;52.648;4.764;2022-11-28T07:42:42;100899.81;;;17.85;60.81
64388;BME280;50709;52.648;4.764;2022-11-28T07:45:07;100911.47;;;17.78;61.05
64388;BME280;50709;52.648;4.764;2022-11-28T07:47:33;100917.69;;;17.75;61.20
64388;BME280;50709;52.648;4.764;2022-11-28T07:49:58;100919.75;;;17.64;61.95
64388;BME280;50709;52.648;4.764;2022-11-28T07:52:23;100914.56;;;17.59;61.05
64388;BME280;50709;52.648;4.764;2022-11-28T07:54:49;100916.38;;;17.59;61.69
64388;BME280;50709;52.648;4.764;2022-11-28T07:57:14;100916.38;;;17.59;62.65
64388;BME280;50709;52.648;4.764;2022-11-28T07:59:39;100918.25;;;17.54;61.36
64388;BME280;50709;52.648;4.764;2022-11-28T08:02:04;100931.50;;;17.52;61.65
64388;BME280;50709;52.648;4.764;2022-11-28T08:04:30;100935.06;;;17.49;62.05
64388;BME280;50709;52.648;4.764;2022-11-28T08:06:55;100929.88;;;17.46;61.88
64388;BME280;50709;52.648;4.764;2022-11-28T08:09:21;100928.13;;;17.45;62.37
64388;BME280;50709;52.648;4.764;2022-11-28T08:11:46;100925.50;;;17.45;62.03
64388;BME280;50709;52.648;4.764;2022-11-28T08:14:11;100930.03;;;17.40;61.79
64388;BME280;50709;52.648;4.764;2022-11-28T08:16:38;100931.16;;;17.30;61.51
64388;BME280;50709;52.648;4.764;2022-11-28T08:19:05;100932.88;;;17.31;62.43
64388;BME280;50709;52.648;4.764;2022-11-28T08:21:31;100940.75;;;17.32;61.87
64388;BME280;50709;52.648;4.764;2022-11-28T08:23:59;100943.44;;;17.31;61.97
64388;BME280;50709;52.648;4.764;2022-11-28T08:26:25;100947.06;;;17.27;61.93
64388;BME280;50709;52.648;4.764;2022-11-28T08:28:51;100952.47;;;17.21;61.76
64388;BME280;50709;52.648;4.764;2022-11-28T08:31:24;100956.03;;;17.20;62.32
64388;BME280;50709;52.648;4.764;2022-11-28T08:33:51;100953.44;;;17.17;61.99
64388;BME280;50709;52.648;4.764;2022-11-28T08:36:17;100951.75;;;17.14;62.11
64388;BME280;50709;52.648;4.764;2022-11-28T08:38:43;100950.09;;;17.11;61.90
64388;BME280;50709;52.648;4.764;2022-11-28T08:41:10;100951.06;;;17.06;62.52
64388;BME280;50709;52.648;4.764;2022-11-28T08:43:36;100956.34;;;17.06;62.45
64388;BME280;50709;52.648;4.764;2022-11-28T08:46:02;100953.81;;;17.01;62.48
64388;BME280;50709;52.648;4.764;2022-11-28T08:48:28;100955.63;;;16.99;62.39
64388;BME280;50709;52.648;4.764;2022-11-28T08:50:54;100959.13;;;17.00;62.70
64388;BME280;50709;52.648;4.764;2022-11-28T08:53:19;100957.41;;;16.98;62.82
64388;BME280;50709;52.648;4.764;2022-11-28T08:55:44;100953.91;;;16.98;62.37
64388;BME280;50709;52.648;4.764;2022-11-28T08:58:10;100951.38;;;16.92;62.66
64388;BME280;50709;52.648;4.764;2022-11-28T09:00:36;100955.59;;;17.01;62.50
64388;BME280;50709;52.648;4.764;2022-11-28T09:03:02;100949.59;;;16.94;62.90
64388;BME280;50709;52.648;4.764;2022-11-28T09:05:28;100961.88;;;16.95;62.74
64388;BME280;50709;52.648;4.764;2022-11-28T09:07:53;100959.22;;;16.95;62.86
64388;BME280;50709;52.648;4.764;2022-11-28T09:10:19;100955.78;;;16.93;62.92
64388;BME280;50709;52.648;4.764;2022-11-28T09:12:44;100962.81;;;16.92;62.99
64388;BME280;50709;52.648;4.764;2022-11-28T09:15:09;100963.69;;;16.93;62.73
64388;BME280;50709;52.648;4.764;2022-11-28T09:17:35;100974.25;;;16.93;63.21
64388;BME280;50709;52.648;4.764;2022-11-28T09:20:00;100977.78;;;16.92;62.93
64388;BME280;50709;52.648;4.764;2022-11-28T09:22:27;100976.06;;;16.88;63.26
64388;BME280;50709;52.648;4.764;2022-11-28T09:24:52;100969.00;;;16.91;62.91
64388;BME280;50709;52.648;4.764;2022-11-28T09:27:17;100968.06;;;16.92;63.05
64388;BME280;50709;52.648;4.764;2022-11-28T09:29:42;100968.06;;;16.94;62.97
64388;BME280;50709;52.648;4.764;2022-11-28T09:32:08;100974.16;;;16.96;63.21
64388;BME280;50709;52.648;4.764;2022-11-28T09:34:33;100968.97;;;16.93;63.22
64388;BME280;50709;52.648;4.764;2022-11-28T09:36:59;100976.94;;;16.90;63.30
64388;BME280;50709;52.648;4.764;2022-11-28T09:39:24;100972.28;;;17.01;63.36
64388;BME280;50709;52.648;4.764;2022-11-28T09:41:57;100974.16;;;16.96;62.88
64388;BME280;50709;52.648;4.764;2022-11-28T09:46:57;100983.97;;;16.89;63.12
64388;BME280;50709;52.648;4.764;2022-11-28T09:52:11;100983.03;;;16.92;62.75
64388;BME280;50709;52.648;4.764;2022-11-28T09:54:46;100976.06;;;16.88;63.17
64388;BME280;50709;52.648;4.764;2022-11-28T09:57:29;100988.38;;;16.89;63.46
64388;BME280;50709;52.648;4.764;2022-11-28T09:59:55;100995.50;;;16.84;63.58
64388;BME280;50709;52.648;4.764;2022-11-28T10:02:23;100987.63;;;16.82;63.60
64388;BME280;50709;52.648;4.764;2022-11-28T10:09:54;100978.03;;;16.78;63.80
64388;BME280;50709;52.648;4.764;2022-11-28T10:17:30;100984.88;;;16.87;63.77
64388;BME280;50709;52.648;4.764;2022-11-28T10:19:59;100992.00;;;16.83;63.91
64388;BME280;50709;52.648;4.764;2022-11-28T10:28:05;100993.63;;;16.89;64.08
64388;BME280;50709;52.648;4.764;2022-11-28T10:30:37;100998.03;;;16.91;63.71
64388;BME280;50709;52.648;4.764;2022-11-28T10:33:13;100996.25;;;16.92;63.88
64388;BME280;50709;52.648;4.764;2022-11-28T10:35:46;101005.09;;;16.89;63.96
64388;BME280;50709;52.648;4.764;2022-11-28T10:38:13;101001.50;;;16.92;63.90
64388;BME280;50709;52.648;4.764;2022-11-28T10:43:26;101004.09;;;16.93;63.55
64388;BME280;50709;52.648;4.764;2022-11-28T10:46:02;101002.31;;;16.95;63.35
64388;BME280;50709;52.648;4.764;2022-11-28T10:48:35;101014.69;;;16.92;64.13
64388;BME280;50709;52.648;4.764;2022-11-28T10:53:46;101013.81;;;16.93;63.56
64388;BME280;50709;52.648;4.764;2022-11-28T10:56:24;101012.00;;;16.95;63.62
64388;BME280;50709;52.648;4.764;2022-11-28T10:58:56;101011.91;;;17.00;63.49
64388;BME280;50709;52.648;4.764;2022-11-28T11:01:23;101016.28;;;16.99;63.54
64388;BME280;50709;52.648;4.764;2022-11-28T11:03:51;101020.69;;;17.00;63.90
64388;BME280;50709;52.648;4.764;2022-11-28T11:06:16;101011.91;;;17.00;63.46
64388;BME280;50709;52.648;4.764;2022-11-28T11:08:43;101015.41;;;17.00;63.38
64388;BME280;50709;52.648;4.764;2022-11-28T11:13:54;101011.91;;;17.00;63.49
64388;BME280;50709;52.648;4.764;2022-11-28T11:16:20;101011.94;;;16.98;63.60
64388;BME280;50709;52.648;4.764;2022-11-28T11:21:15;101014.69;;;16.92;63.57
64388;BME280;50709;52.648;4.764;2022-11-28T11:23:40;101013.00;;;16.88;63.79
64388;BME280;50709;52.648;4.764;2022-11-28T11:26:06;101020.91;;;16.89;63.66
64388;BME280;50709;52.648;4.764;2022-11-28T11:31:13;101017.47;;;16.84;63.98
64388;BME280;50709;52.648;4.764;2022-11-28T11:33:39;101015.63;;;16.89;63.44
64388;BME280;50709;52.648;4.764;2022-11-28T11:36:05;101025.28;;;16.89;63.44
64388;BME280;50709;52.648;4.764;2022-11-28T11:38:42;101017.41;;;16.87;63.83
64388;BME280;50709;52.648;4.764;2022-11-28T11:41:18;101013.84;;;16.91;63.82
64388;BME280;50709;52.648;4.764;2022-11-28T11:43:45;101016.44;;;16.93;63.55
64388;BME280;50709;52.648;4.764;2022-11-28T11:46:11;101018.22;;;16.91;63.87
64388;BME280;50709;52.648;4.764;2022-11-28T11:48:46;101019.97;;;16.92;63.63
64388;BME280;50709;52.648;4.764;2022-11-28T11:51:22;101019.00;;;16.96;63.85
64388;BME280;50709;52.648;4.764;2022-11-28T11:53:58;101019.94;;;16.93;63.63
64388;BME280;50709;52.648;4.764;2022-11-28T11:56:23;101018.16;;;16.95;63.80
64388;BME280;50709;52.648;4.764;2022-11-28T11:58:50;101017.34;;;16.92;63.65
64388;BME280;50709;52.648;4.764;2022-11-28T12:01:16;101022.63;;;16.92;63.98
64388;BME280;50709;52.648;4.764;2022-11-28T12:06:18;101016.53;;;16.87;64.04
64388;BME280;50709;52.648;4.764;2022-11-28T12:14:46;100980.31;;;16.53;64.64
64388;BME280;50709;52.648;4.764;2022-11-28T12:50:24;101035.69;;;16.98;64.16
64388;BME280;50709;52.648;4.764;2022-11-28T12:58:21;101039.06;;;17.03;63.56
64388;BME280;50709;52.648;4.764;2022-11-28T13:00:59;101037.41;;;17.01;63.81
64388;BME280;50709;52.648;4.764;2022-11-28T13:13:41;101049.19;;;16.81;64.24
64388;BME280;50709;52.648;4.764;2022-11-28T13:18:43;101049.97;;;16.86;63.99
64388;BME280;50709;52.648;4.764;2022-11-28T13:23:45;101049.78;;;16.97;63.59
64388;BME280;50709;52.648;4.764;2022-11-28T13:31:22;101062.22;;;16.89;63.85
64388;BME280;50709;52.648;4.764;2022-11-28T13:33:49;101054.34;;;16.87;63.44
64388;BME280;50709;52.648;4.764;2022-11-28T13:36:19;101063.16;;;16.86;63.91
64388;BME280;50709;52.648;4.764;2022-11-28T13:41:12;101064.91;;;16.86;63.96
64388;BME280;50709;52.648;4.764;2022-11-28T13:43:44;101072.78;;;16.89;63.83
64388;BME280;50709;52.648;4.764;2022-11-28T13:46:13;101075.38;;;16.92;63.49
64388;BME280;50709;52.648;4.764;2022-11-28T13:53:35;101078.09;;;16.86;64.00
64388;BME280;50709;52.648;4.764;2022-11-28T13:58:41;101077.19;;;16.87;63.93
64388;BME280;50709;52.648;4.764;2022-11-28T14:01:10;101072.78;;;16.89;63.71
64388;BME280;50709;52.648;4.764;2022-11-28T14:06:23;101076.16;;;16.97;63.54
64388;BME280;50709;52.648;4.764;2022-11-28T14:11:52;101077.97;;;16.93;63.88
64388;BME280;50709;52.648;4.764;2022-11-28T14:19:48;101082.28;;;16.97;63.48
64388;BME280;50709;52.648;4.764;2022-11-28T14:27:48;101092.72;;;17.04;63.02
64388;BME280;50709;52.648;4.764;2022-11-28T14:30:22;101099.00;;;16.98;63.28
64388;BME280;50709;52.648;4.764;2022-11-28T14:32:48;101073.78;;;16.81;63.04
64388;BME280;50709;52.648;4.764;2022-11-28T14:38:38;101112.97;;;17.02;63.04
64388;BME280;50709;52.648;4.764;2022-11-28T14:45:48;101116.44;;;17.05;62.75
64388;BME280;50709;52.648;4.764;2022-11-28T14:50:48;101122.59;;;17.04;62.79
64388;BME280;50709;52.648;4.764;2022-11-28T14:58:47;101122.69;;;17.01;62.66
64388;BME280;50709;52.648;4.764;2022-11-28T15:01:14;101128.84;;;17.00;62.78
64388;BME280;50709;52.648;4.764;2022-11-28T15:06:12;101128.03;;;16.98;62.79
64388;BME280;50709;52.648;4.764;2022-11-28T15:11:49;101145.75;;;16.91;62.79
64388;BME280;50709;52.648;4.764;2022-11-28T15:14:23;101154.53;;;16.92;62.66
64388;BME280;50709;52.648;4.764;2022-11-28T15:16:50;101151.00;;;16.93;62.65
64388;BME280;50709;52.648;4.764;2022-11-28T15:19:32;101150.16;;;16.89;62.71
64388;BME280;50709;52.648;4.764;2022-11-28T15:22:00;101151.94;;;16.87;62.78
64388;BME280;50709;52.648;4.764;2022-11-28T15:24:33;101155.50;;;16.85;62.62
64388;BME280;50709;52.648;4.764;2022-11-28T15:29:30;101158.31;;;16.75;62.83
64388;BME280;50709;52.648;4.764;2022-11-28T15:31:55;101160.06;;;16.75;62.86
64388;BME280;50709;52.648;4.764;2022-11-28T15:34:29;101168.09;;;16.69;63.33
64388;BME280;50709;52.648;4.764;2022-11-28T15:36:56;101159.22;;;16.74;62.71
64388;BME280;50709;52.648;4.764;2022-11-28T15:39:31;101162.75;;;16.73;62.86
64388;BME280;50709;52.648;4.764;2022-11-28T15:41:59;101159.38;;;16.65;62.91
64388;BME280;50709;52.648;4.764;2022-11-28T15:44:25;101155.91;;;16.63;62.85
64388;BME280;50709;52.648;4.764;2022-11-28T15:46:51;101163.78;;;16.64;62.67
64388;BME280;50709;52.648;4.764;2022-11-28T15:51:51;101168.22;;;16.62;62.81
64388;BME280;50709;52.648;4.764;2022-11-28T15:54:34;101176.19;;;16.59;62.82
64388;BME280;50709;52.648;4.764;2022-11-28T15:57:00;101171.78;;;16.58;62.94
64388;BME280;50709;52.648;4.764;2022-11-28T15:59:26;101176.19;;;16.59;62.94
64388;BME280;50709;52.648;4.764;2022-11-28T16:01:55;101177.94;;;16.60;62.79
64388;BME280;50709;52.648;4.764;2022-11-28T16:04:22;101184.09;;;16.59;62.90
64388;BME280;50709;52.648;4.764;2022-11-28T16:06:49;101190.28;;;16.57;62.80